Time;durP1;ratioP1;P1;durP2;ratioP2;P2;SDS_P1;SDS_P2;PMS_P1;PMS_P2;Temp;Humidity;BMP_temperature;BMP_pressure;BME280_temperature;BME280_humidity;BME280_pressure;Samples;Min_cycle;Max_cycle;Signal;HPM_P1;HPM_P2
2022/12/25 00:00:21;;;;;;;50.88;12.10;;;;;;;;;;5040594;28;20464;-77
2022/12/25 00:02:47;;;;;;;48.60;12.43;;;;;;;;;;5036989;28;20025;-76
2022/12/25 00:05:13;;;;;;;45.28;11.00;;;;;;;;;;5036960;28;20033;-77
2022/12/25 00:07:39;;;;;;;43.55;12.02;;;;;;;;;;5038041;28;20029;-78
2022/12/25 00:10:05;;;;;;;47.22;13.27;;;;;;;;;;5037951;28;20033;-77
2022/12/25 00:12:31;;;;;;;44.55;11.82;;;;;;;;;;5020478;28;20083;-78
2022/12/25 00:14:57;;;;;;;50.63;11.32;;;;;;;;;;5039270;28;20030;-77
2022/12/25 00:17:23;;;;;;;51.58;12.48;;;;;;;;;;5048175;28;20076;-78
2022/12/25 00:19:49;;;;;;;50.25;11.85;;;;;;;;;;5050720;28;20026;-76
2022/12/25 00:22:15;;;;;;;46.90;11.70;;;;;;;;;;5050774;28;20029;-77
2022/12/25 00:24:41;;;;;;;41.13;11.23;;;;;;;;;;5038895;28;20117;-77
2022/12/25 00:27:07;;;;;;;51.65;11.80;;;;;;;;;;5036312;28;20044;-78
2022/12/25 00:29:33;;;;;;;45.85;11.80;;;;;;;;;;5036169;28;20390;-78
2022/12/25 00:31:59;;;;;;;55.00;12.35;;;;;;;;;;5018374;28;20029;-78
2022/12/25 00:34:25;;;;;;;58.95;12.45;;;;;;;;;;5018479;28;20057;-79
2022/12/25 00:36:51;;;;;;;49.05;12.45;;;;;;;;;;5036310;28;20029;-76
2022/12/25 00:39:17;;;;;;;53.35;13.40;;;;;;;;;;5058643;22;20099;-74
2022/12/25 00:44:27;;;;;;;54.42;13.65;;;;;;;;;;5034788;28;20040;-76
2022/12/25 00:46:54;;;;;;;45.58;12.73;;;;;;;;;;5034661;28;20037;-75
2022/12/25 00:49:22;;;;;;;53.33;14.52;;;;;;;;;;5035057;28;20104;-75
2022/12/25 00:51:48;;;;;;;52.75;13.00;;;;;;;;;;5041657;28;20022;-76
2022/12/25 00:54:14;;;;;;;50.75;13.48;;;;;;;;;;5044337;28;20537;-77
2022/12/25 00:56:40;;;;;;;52.63;13.80;;;;;;;;;;5038260;28;20030;-76
2022/12/25 00:59:06;;;;;;;57.33;14.38;;;;;;;;;;5037101;28;20470;-76
2022/12/25 01:01:32;;;;;;;57.85;13.10;;;;;;;;;;5034648;28;20099;-76
2022/12/25 01:03:58;;;;;;;52.13;13.30;;;;;;;;;;5044205;28;20052;-78
2022/12/25 01:06:25;;;;;;;49.33;14.27;;;;;;;;;;5035360;28;20053;-76
2022/12/25 01:11:35;;;;;;;45.67;14.20;;;;;;;;;;5035500;28;20536;-78
2022/12/25 01:14:01;;;;;;;60.83;14.55;;;;;;;;;;5036189;28;20037;-78
2022/12/25 01:16:28;;;;;;;44.55;13.15;;;;;;;;;;5034504;28;20057;-77
2022/12/25 01:18:54;;;;;;;48.28;12.98;;;;;;;;;;5035032;28;20021;-77
2022/12/25 01:21:20;;;;;;;51.67;12.68;;;;;;;;;;5017621;28;20033;-77
2022/12/25 01:23:47;;;;;;;66.47;15.05;;;;;;;;;;5036967;28;20410;-77
2022/12/25 01:26:13;;;;;;;51.90;14.15;;;;;;;;;;5034968;28;20426;-75
2022/12/25 01:28:39;;;;;;;56.35;14.35;;;;;;;;;;5036974;28;20379;-77
2022/12/25 01:31:08;;;;;;;61.15;14.00;;;;;;;;;;5035307;28;20025;-76
2022/12/25 01:33:34;;;;;;;52.92;13.00;;;;;;;;;;5036576;28;20390;-77
2022/12/25 01:36:00;;;;;;;57.13;14.07;;;;;;;;;;5017978;28;20021;-77
2022/12/25 01:38:26;;;;;;;53.05;13.68;;;;;;;;;;5034997;28;20105;-77
2022/12/25 01:40:52;;;;;;;80.32;16.55;;;;;;;;;;5035499;28;20044;-77
2022/12/25 01:43:25;;;;;;;64.18;15.55;;;;;;;;;;5034135;28;20026;-77
2022/12/25 01:45:52;;;;;;;59.03;14.02;;;;;;;;;;5033672;28;20037;-76
2022/12/25 01:48:20;;;;;;;63.17;16.38;;;;;;;;;;5034266;28;20029;-77
2022/12/25 01:50:57;;;;;;;58.80;15.48;;;;;;;;;;5034643;28;20510;-78
2022/12/25 01:53:23;;;;;;;78.78;17.33;;;;;;;;;;5034236;28;20025;-77
2022/12/25 01:55:50;;;;;;;76.97;17.25;;;;;;;;;;5033933;28;20040;-77
2022/12/25 01:58:17;;;;;;;64.40;15.65;;;;;;;;;;5034177;28;20097;-76
2022/12/25 02:00:43;;;;;;;65.38;15.65;;;;;;;;;;5033228;28;20118;-76
2022/12/25 02:03:09;;;;;;;65.38;16.45;;;;;;;;;;5033104;28;20033;-77
2022/12/25 02:05:35;;;;;;;67.15;18.17;;;;;;;;;;5032924;28;20026;-77
2022/12/25 02:08:04;;;;;;;77.00;17.75;;;;;;;;;;5033185;28;20486;-77
2022/12/25 02:10:29;;;;;;;68.18;17.70;;;;;;;;;;5033744;28;20590;-74
2022/12/25 02:12:56;;;;;;;56.85;16.95;;;;;;;;;;5033593;28;20100;-78
2022/12/25 02:15:24;;;;;;;63.25;17.80;;;;;;;;;;5032926;28;20037;-76
2022/12/25 02:18:07;;;;;;;63.72;17.00;;;;;;;;;;5033765;28;20083;-75
2022/12/25 02:20:36;;;;;;;66.47;17.58;;;;;;;;;;5033913;28;20053;-75
2022/12/25 02:23:12;;;;;;;61.55;17.80;;;;;;;;;;5034099;28;20048;-76
2022/12/25 02:25:47;;;;;;;64.70;18.08;;;;;;;;;;5034205;28;20369;-77
2022/12/25 02:28:19;;;;;;;89.82;20.08;;;;;;;;;;5032978;28;20363;-76
2022/12/25 02:30:50;;;;;;;75.95;18.90;;;;;;;;;;5032557;28;20033;-76
2022/12/25 02:36:13;;;;;;;70.07;19.52;;;;;;;;;;5034392;28;20167;-77
2022/12/25 02:39:56;;;;;;;65.03;18.35;;;;;;;;;;5017094;28;20031;-77
2022/12/25 02:41:29;;;;;;;77.18;20.63;;;;;;;;;;5034775;28;20095;-77
2022/12/25 03:11:29;;;;;;;71.05;19.33;;;;;;;;;;5033780;28;20556;-78
2022/12/25 03:11:43;;;;;;;70.90;20.40;;;;;;;;;;5032308;28;20065;-76
2022/12/25 03:16:55;;;;;;;58.45;21.60;;;;;;;;;;5033117;28;20068;-76
2022/12/25 03:27:59;;;;;;;65.47;21.52;;;;;;;;;;5022087;28;20047;-76
2022/12/25 03:33:28;;;;;;;70.22;20.58;;;;;;;;;;5051419;28;20060;-74
2022/12/25 03:36:04;;;;;;;69.93;21.58;;;;;;;;;;5046597;28;20128;-77
2022/12/25 03:44:23;;;;;;;76.38;21.98;;;;;;;;;;5049205;28;20394;-77
2022/12/25 04:36:44;;;;;;;65.82;22.20;;;;;;;;;;5036310;28;20091;-77
2022/12/25 04:39:10;;;;;;;60.08;21.13;;;;;;;;;;5035722;28;20478;-77
2022/12/25 04:41:36;;;;;;;69.45;22.10;;;;;;;;;;5036792;28;20076;-77
2022/12/25 04:44:02;;;;;;;71.88;25.15;;;;;;;;;;5036406;28;20022;-77
2022/12/25 04:46:28;;;;;;;72.60;27.55;;;;;;;;;;5035217;28;20371;-77
2022/12/25 04:48:54;;;;;;;88.60;29.70;;;;;;;;;;5036847;28;20029;-77
2022/12/25 04:51:21;;;;;;;92.07;32.17;;;;;;;;;;5036288;28;20025;-77
2022/12/25 04:53:48;;;;;;;96.25;32.88;;;;;;;;;;5036363;28;20029;-77
2022/12/25 04:56:14;;;;;;;85.32;33.63;;;;;;;;;;5035620;28;20038;-77
2022/12/25 04:58:41;;;;;;;95.35;35.38;;;;;;;;;;5018349;28;20074;-76
2022/12/25 05:01:07;;;;;;;80.88;33.88;;;;;;;;;;5036317;28;20033;-77
2022/12/25 05:03:33;;;;;;;86.18;33.90;;;;;;;;;;5034588;28;20032;-75
2022/12/25 05:06:00;;;;;;;92.43;34.30;;;;;;;;;;5035732;28;20367;-78
2022/12/25 05:08:27;;;;;;;90.57;35.20;;;;;;;;;;5038535;28;20021;-76
2022/12/25 05:10:53;;;;;;;83.90;33.42;;;;;;;;;;5038982;28;20083;-76
2022/12/25 05:13:19;;;;;;;91.00;33.40;;;;;;;;;;5040764;28;20030;-76
2022/12/25 05:15:45;;;;;;;86.25;31.13;;;;;;;;;;5039061;28;20026;-77
2022/12/25 05:18:11;;;;;;;71.22;29.85;;;;;;;;;;5040558;28;20029;-76
2022/12/25 05:20:37;;;;;;;83.65;29.88;;;;;;;;;;5037045;28;20081;-74
2022/12/25 05:23:03;;;;;;;72.10;26.20;;;;;;;;;;5035492;28;20107;-75
2022/12/25 05:25:29;;;;;;;66.97;27.15;;;;;;;;;;5017195;28;20079;-76
2022/12/25 05:27:54;;;;;;;78.40;27.30;;;;;;;;;;5034578;28;20036;-76
2022/12/25 05:30:20;;;;;;;67.80;25.63;;;;;;;;;;5035742;28;20101;-75
2022/12/25 05:32:47;;;;;;;76.82;24.55;;;;;;;;;;5036580;28;20099;-76
2022/12/25 05:35:13;;;;;;;64.55;25.08;;;;;;;;;;5036691;28;20041;-77
2022/12/25 05:37:39;;;;;;;68.60;25.13;;;;;;;;;;5036302;28;20044;-75
2022/12/25 05:40:05;;;;;;;71.35;24.17;;;;;;;;;;5034768;28;20036;-77
2022/12/25 05:42:31;;;;;;;69.53;24.88;;;;;;;;;;5034414;28;20030;-77
2022/12/25 05:44:57;;;;;;;66.25;23.92;;;;;;;;;;5034520;28;20029;-76
2022/12/25 05:47:23;;;;;;;68.40;23.92;;;;;;;;;;5034266;28;20033;-76
2022/12/25 05:49:49;;;;;;;69.25;24.42;;;;;;;;;;5033752;28;20039;-76
2022/12/25 05:52:15;;;;;;;79.10;27.70;;;;;;;;;;5034534;28;20032;-77
2022/12/25 05:54:41;;;;;;;59.53;25.17;;;;;;;;;;5034256;28;20025;-77
2022/12/25 05:57:06;;;;;;;62.90;25.85;;;;;;;;;;5014797;28;20120;-76
2022/12/25 05:59:33;;;;;;;69.38;25.95;;;;;;;;;;5033669;28;20037;-78
2022/12/25 06:01:59;;;;;;;68.40;25.98;;;;;;;;;;5033750;28;20028;-76
2022/12/25 06:04:25;;;;;;;66.50;25.38;;;;;;;;;;5033744;28;20033;-77
2022/12/25 06:06:51;;;;;;;59.78;23.85;;;;;;;;;;5033402;28;20033;-74
2022/12/25 06:09:17;;;;;;;79.68;25.95;;;;;;;;;;5034533;28;20036;-76
2022/12/25 06:11:43;;;;;;;73.78;24.35;;;;;;;;;;5033323;28;20084;-76
2022/12/25 06:14:12;;;;;;;59.38;23.52;;;;;;;;;;5031198;28;20536;-75
2022/12/25 06:16:38;;;;;;;60.15;25.05;;;;;;;;;;5032316;28;20013;-76
2022/12/25 06:19:05;;;;;;;55.47;22.95;;;;;;;;;;5031123;28;20025;-77
2022/12/25 06:21:31;;;;;;;62.75;23.60;;;;;;;;;;5032747;28;20021;-76
2022/12/25 06:23:58;;;;;;;68.63;24.35;;;;;;;;;;5033174;28;20025;-76
2022/12/25 06:26:24;;;;;;;52.80;22.48;;;;;;;;;;5047595;28;20087;-75
2022/12/25 06:28:50;;;;;;;57.83;22.27;;;;;;;;;;5034677;28;20025;-77
2022/12/25 06:31:18;;;;;;;74.63;22.77;;;;;;;;;;5033511;28;20079;-76
2022/12/25 06:33:44;;;;;;;55.15;22.08;;;;;;;;;;5034097;28;20060;-77
2022/12/25 06:36:11;;;;;;;61.42;21.80;;;;;;;;;;5032997;28;20044;-75
2022/12/25 06:38:38;;;;;;;62.95;22.23;;;;;;;;;;5031538;28;20123;-76
2022/12/25 06:41:09;;;;;;;55.05;22.02;;;;;;;;;;5031652;28;20108;-76
2022/12/25 06:43:35;;;;;;;55.72;22.42;;;;;;;;;;5029805;28;20013;-75
2022/12/25 06:46:08;;;;;;;62.08;21.13;;;;;;;;;;5030731;28;20036;-74
2022/12/25 06:48:34;;;;;;;59.80;23.48;;;;;;;;;;5026721;28;20029;-74
2022/12/25 06:51:01;;;;;;;55.28;23.08;;;;;;;;;;5031971;28;20029;-75
2022/12/25 06:53:27;;;;;;;68.90;22.08;;;;;;;;;;5031897;28;20025;-76
2022/12/25 06:55:53;;;;;;;52.58;21.42;;;;;;;;;;5031518;28;20051;-76
2022/12/25 06:58:20;;;;;;;69.13;23.55;;;;;;;;;;5032159;28;20021;-76
2022/12/25 07:00:46;;;;;;;71.60;23.20;;;;;;;;;;5032446;28;20052;-75
2022/12/25 07:03:16;;;;;;;66.57;22.75;;;;;;;;;;5032985;28;20022;-76
2022/12/25 07:05:43;;;;;;;64.15;23.17;;;;;;;;;;5031778;28;20036;-76
2022/12/25 07:08:09;;;;;;;53.33;20.63;;;;;;;;;;5031992;28;20025;-76
2022/12/25 07:10:35;;;;;;;54.42;22.13;;;;;;;;;;5032199;28;20029;-76
2022/12/25 07:13:01;;;;;;;53.97;22.08;;;;;;;;;;5032142;28;20025;-76
2022/12/25 07:15:27;;;;;;;54.95;21.83;;;;;;;;;;5033311;28;20160;-75
2022/12/25 07:17:53;;;;;;;54.03;21.60;;;;;;;;;;5048836;28;20025;-77
2022/12/25 07:20:19;;;;;;;51.00;20.27;;;;;;;;;;5050691;28;20040;-75
2022/12/25 07:22:45;;;;;;;48.20;20.25;;;;;;;;;;5042203;28;20045;-75
2022/12/25 07:25:10;;;;;;;51.00;20.50;;;;;;;;;;5032667;28;20541;-76
2022/12/25 07:27:36;;;;;;;55.95;19.45;;;;;;;;;;5033144;28;20064;-75
2022/12/25 07:30:02;;;;;;;53.30;18.58;;;;;;;;;;5014268;28;20025;-74
2022/12/25 07:32:32;;;;;;;47.08;18.70;;;;;;;;;;5031827;28;20498;-77
2022/12/25 07:34:58;;;;;;;52.33;19.15;;;;;;;;;;5031438;28;20037;-76
2022/12/25 07:37:24;;;;;;;51.42;19.27;;;;;;;;;;5030868;28;20029;-75
2022/12/25 07:39:50;;;;;;;55.30;18.25;;;;;;;;;;5031403;28;20060;-75
2022/12/25 07:42:15;;;;;;;54.33;18.42;;;;;;;;;;5031317;28;20445;-75
2022/12/25 07:44:41;;;;;;;53.15;17.85;;;;;;;;;;5031730;28;20537;-77
2022/12/25 07:47:07;;;;;;;41.78;17.23;;;;;;;;;;5031817;28;20467;-76
2022/12/25 07:49:33;;;;;;;55.28;17.67;;;;;;;;;;5031578;28;20080;-74
2022/12/25 07:51:59;;;;;;;54.38;17.90;;;;;;;;;;5032149;28;20033;-77
2022/12/25 07:54:25;;;;;;;52.53;18.08;;;;;;;;;;5033401;28;20044;-78
2022/12/25 07:56:52;;;;;;;54.20;17.10;;;;;;;;;;5041956;28;20108;-78
2022/12/25 07:59:18;;;;;;;54.05;17.38;;;;;;;;;;5059477;28;20128;-80
2022/12/25 08:01:44;;;;;;;63.47;17.70;;;;;;;;;;5038647;28;20112;-74
2022/12/25 08:04:10;;;;;;;50.45;17.65;;;;;;;;;;5052692;28;20098;-74
2022/12/25 08:06:37;;;;;;;59.67;18.20;;;;;;;;;;5051028;28;20488;-76
2022/12/25 08:09:10;;;;;;;55.33;16.80;;;;;;;;;;5051004;28;20070;-76
2022/12/25 08:11:36;;;;;;;61.95;17.55;;;;;;;;;;5054683;28;20025;-75
2022/12/25 08:14:05;;;;;;;59.70;18.33;;;;;;;;;;5058271;28;20099;-79
2022/12/25 08:16:31;;;;;;;43.63;16.60;;;;;;;;;;5056446;28;20082;-78
2022/12/25 08:18:57;;;;;;;59.55;17.10;;;;;;;;;;5061881;28;20028;-77
2022/12/25 08:21:23;;;;;;;54.20;16.80;;;;;;;;;;5057903;28;20039;-76
2022/12/25 08:23:48;;;;;;;50.30;16.67;;;;;;;;;;5057061;28;20052;-75
2022/12/25 08:26:20;;;;;;;59.03;19.30;;;;;;;;;;5057363;28;20025;-75
2022/12/25 08:28:47;;;;;;;53.20;16.65;;;;;;;;;;5055335;28;20065;-77
2022/12/25 08:31:15;;;;;;;54.95;16.88;;;;;;;;;;5055241;28;20509;-77
2022/12/25 08:33:42;;;;;;;54.58;17.60;;;;;;;;;;5057551;28;20136;-73
2022/12/25 08:36:08;;;;;;;48.13;17.00;;;;;;;;;;5048428;28;20029;-75
2022/12/25 08:38:34;;;;;;;58.60;17.10;;;;;;;;;;5054502;28;20021;-76
2022/12/25 08:41:00;;;;;;;52.10;17.05;;;;;;;;;;5054017;28;20055;-76
2022/12/25 08:43:26;;;;;;;52.63;16.38;;;;;;;;;;5054327;28;20475;-75
2022/12/25 08:45:52;;;;;;;53.05;19.15;;;;;;;;;;5036587;28;20036;-75
2022/12/25 08:48:18;;;;;;;50.78;15.95;;;;;;;;;;5054961;28;20033;-75
2022/12/25 08:50:51;;;;;;;50.55;16.02;;;;;;;;;;5057318;28;20083;-76
2022/12/25 08:53:18;;;;;;;45.03;16.05;;;;;;;;;;5054797;28;20021;-75
2022/12/25 08:55:44;;;;;;;54.92;16.60;;;;;;;;;;5035849;28;20025;-75
2022/12/25 08:58:10;;;;;;;56.58;17.38;;;;;;;;;;5054216;28;20043;-75
2022/12/25 09:00:36;;;;;;;51.63;16.30;;;;;;;;;;5053922;28;20500;-75
2022/12/25 09:03:02;;;;;;;48.60;16.15;;;;;;;;;;5054223;28;20053;-74
2022/12/25 09:05:28;;;;;;;54.00;15.75;;;;;;;;;;5053770;28;20028;-74
2022/12/25 09:07:54;;;;;;;54.95;15.95;;;;;;;;;;5053867;28;20530;-76
2022/12/25 09:10:20;;;;;;;57.88;14.77;;;;;;;;;;5053897;28;20378;-76
2022/12/25 09:12:46;;;;;;;49.85;14.43;;;;;;;;;;5053642;28;20098;-74
2022/12/25 09:15:12;;;;;;;43.15;15.75;;;;;;;;;;5053795;28;20025;-75
2022/12/25 09:17:38;;;;;;;49.50;14.85;;;;;;;;;;5053076;28;20028;-75
2022/12/25 09:20:06;;;;;;;48.47;15.13;;;;;;;;;;5055341;28;20048;-78
2022/12/25 09:22:32;;;;;;;55.95;15.30;;;;;;;;;;5059356;28;20021;-77
2022/12/25 09:24:57;;;;;;;56.00;15.57;;;;;;;;;;5057852;28;20029;-77
2022/12/25 09:27:24;;;;;;;50.67;14.23;;;;;;;;;;5058772;28;20036;-78
2022/12/25 09:29:50;;;;;;;52.95;14.88;;;;;;;;;;5065469;28;20048;-77
2022/12/25 09:32:16;;;;;;;45.78;14.63;;;;;;;;;;5058562;28;20033;-77
2022/12/25 09:34:41;;;;;;;55.05;14.05;;;;;;;;;;5064123;28;20029;-78
2022/12/25 09:37:07;;;;;;;52.65;15.88;;;;;;;;;;5067742;28;20029;-76
2022/12/25 09:39:33;;;;;;;54.03;15.02;;;;;;;;;;5062490;28;20063;-78
2022/12/25 09:42:01;;;;;;;48.50;14.90;;;;;;;;;;5056128;28;20024;-76
2022/12/25 09:44:38;;;;;;;45.08;15.88;;;;;;;;;;5054130;28;20087;-78
2022/12/25 09:47:06;;;;;;;42.40;13.95;;;;;;;;;;5054329;28;20660;-75
2022/12/25 09:49:41;;;;;;;54.38;15.25;;;;;;;;;;5053586;28;20021;-75
2022/12/25 09:52:15;;;;;;;49.58;13.82;;;;;;;;;;5054007;28;20037;-74
2022/12/25 09:54:49;;;;;;;42.20;13.63;;;;;;;;;;5053627;28;20025;-75
2022/12/25 09:57:15;;;;;;;47.53;12.88;;;;;;;;;;5053294;28;20021;-75
2022/12/25 09:59:43;;;;;;;45.13;13.85;;;;;;;;;;5052987;28;20090;-74
2022/12/25 10:02:22;;;;;;;51.80;13.38;;;;;;;;;;5053337;28;20025;-74
2022/12/25 10:05:08;;;;;;;42.33;12.90;;;;;;;;;;5058229;28;20056;-76
2022/12/25 10:07:49;;;;;;;42.45;11.88;;;;;;;;;;5039219;28;20041;-77
2022/12/25 10:10:34;;;;;;;39.53;12.07;;;;;;;;;;5056459;28;20029;-76
2022/12/25 10:13:18;;;;;;;42.20;12.90;;;;;;;;;;5053450;28;20038;-76
2022/12/25 10:15:58;;;;;;;45.63;12.50;;;;;;;;;;5053624;28;20029;-74
2022/12/25 10:18:34;;;;;;;38.70;11.45;;;;;;;;;;5059229;28;20029;-77
2022/12/25 10:21:01;;;;;;;38.75;11.18;;;;;;;;;;5042688;28;20108;-76
2022/12/25 10:23:26;;;;;;;38.90;12.07;;;;;;;;;;5060051;28;20033;-78
2022/12/25 10:25:53;;;;;;;40.45;12.68;;;;;;;;;;5058854;28;20535;-76
2022/12/25 10:28:22;;;;;;;46.28;11.85;;;;;;;;;;5054828;28;20462;-77
2022/12/25 10:30:49;;;;;;;39.90;12.15;;;;;;;;;;5054854;28;20036;-76
2022/12/25 10:33:15;;;;;;;46.53;12.60;;;;;;;;;;5053370;28;20100;-76
2022/12/25 10:35:42;;;;;;;44.88;11.77;;;;;;;;;;5057216;28;20409;-78
2022/12/25 10:38:15;;;;;;;38.33;13.10;;;;;;;;;;5054976;28;20359;-75
2022/12/25 10:40:44;;;;;;;44.03;12.77;;;;;;;;;;5054356;28;20029;-78
2022/12/25 10:43:12;;;;;;;33.35;11.63;;;;;;;;;;5053332;28;20025;-76
2022/12/25 10:45:45;;;;;;;49.30;13.10;;;;;;;;;;5052410;28;20033;-76
2022/12/25 10:48:16;;;;;;;41.40;12.98;;;;;;;;;;5053787;28;20035;-75
2022/12/25 10:50:42;;;;;;;31.95;11.75;;;;;;;;;;5052399;28;20025;-76
2022/12/25 10:53:20;;;;;;;45.63;12.75;;;;;;;;;;5035891;28;20501;-77
2022/12/25 10:55:55;;;;;;;43.00;12.10;;;;;;;;;;5053364;28;20021;-76
2022/12/25 10:58:21;;;;;;;39.58;13.95;;;;;;;;;;5062009;28;20032;-75
2022/12/25 11:00:52;;;;;;;41.30;12.95;;;;;;;;;;5067050;28;20072;-76
2022/12/25 11:03:22;;;;;;;43.08;13.07;;;;;;;;;;5064251;28;20051;-75
2022/12/25 11:05:50;;;;;;;44.90;13.02;;;;;;;;;;5051975;28;20060;-77
2022/12/25 11:08:21;;;;;;;40.75;13.70;;;;;;;;;;5054604;28;20044;-74
2022/12/25 11:10:57;;;;;;;44.03;12.85;;;;;;;;;;5052053;28;20037;-75
2022/12/25 11:13:27;;;;;;;43.95;12.48;;;;;;;;;;5052679;28;20060;-73
2022/12/25 11:16:12;;;;;;;42.33;12.63;;;;;;;;;;5053734;28;20029;-75
2022/12/25 11:18:45;;;;;;;41.53;12.82;;;;;;;;;;5057837;28;20029;-75
2022/12/25 11:21:24;;;;;;;35.67;12.38;;;;;;;;;;5053808;28;20025;-79
2022/12/25 11:24:11;;;;;;;34.40;11.63;;;;;;;;;;5036822;28;20021;-77
2022/12/25 11:26:47;;;;;;;37.92;11.93;;;;;;;;;;5023262;28;20127;-76
2022/12/25 11:29:37;;;;;;;37.15;11.48;;;;;;;;;;5033251;28;20025;-75
2022/12/25 11:32:04;;;;;;;30.23;11.98;;;;;;;;;;5023144;28;20041;-77
2022/12/25 11:34:37;;;;;;;41.38;12.60;;;;;;;;;;5009725;28;20037;-76
2022/12/25 11:37:07;;;;;;;43.95;13.05;;;;;;;;;;5032764;28;20467;-77
2022/12/25 11:39:35;;;;;;;38.35;12.82;;;;;;;;;;5028687;28;20530;-77
2022/12/25 11:42:13;;;;;;;35.55;12.30;;;;;;;;;;5037052;28;20425;-77
2022/12/25 11:44:48;;;;;;;42.47;12.35;;;;;;;;;;5026351;28;20037;-78
2022/12/25 11:47:26;;;;;;;41.75;12.02;;;;;;;;;;5036431;28;20033;-77
2022/12/25 11:49:55;;;;;;;37.70;11.73;;;;;;;;;;5040204;28;20096;-76
2022/12/25 11:52:22;;;;;;;40.20;12.43;;;;;;;;;;5039785;28;20083;-77
2022/12/25 11:54:55;;;;;;;41.75;12.38;;;;;;;;;;5042027;28;20033;-75
2022/12/25 11:57:22;;;;;;;42.78;12.88;;;;;;;;;;5040504;28;20028;-76
2022/12/25 11:59:55;;;;;;;31.40;11.55;;;;;;;;;;5043241;28;20557;-76
2022/12/25 12:02:25;;;;;;;37.20;11.75;;;;;;;;;;5044749;28;20366;-76
2022/12/25 12:04:56;;;;;;;32.83;11.48;;;;;;;;;;5041560;28;20032;-76
2022/12/25 12:07:25;;;;;;;36.05;11.90;;;;;;;;;;5043851;28;20033;-76
2022/12/25 12:10:04;;;;;;;45.33;11.82;;;;;;;;;;5039384;28;20033;-75
2022/12/25 12:12:43;;;;;;;36.47;11.57;;;;;;;;;;5038865;28;20470;-76
2022/12/25 12:15:18;;;;;;;36.83;11.23;;;;;;;;;;5036900;28;20041;-75
2022/12/25 12:17:44;;;;;;;43.83;11.70;;;;;;;;;;5037153;28;20029;-76
2022/12/25 12:20:11;;;;;;;41.55;12.77;;;;;;;;;;5018996;28;20018;-76
2022/12/25 12:22:37;;;;;;;38.40;11.32;;;;;;;;;;5036926;28;20056;-76
2022/12/25 12:25:07;;;;;;;33.95;11.15;;;;;;;;;;5036802;28;20037;-77
2022/12/25 12:27:40;;;;;;;45.38;11.52;;;;;;;;;;5031868;28;20022;-75
2022/12/25 12:30:07;;;;;;;49.47;12.75;;;;;;;;;;5035560;28;20029;-76
2022/12/25 12:32:38;;;;;;;35.35;11.32;;;;;;;;;;5027158;28;20300;-78
2022/12/25 12:35:09;;;;;;;45.47;13.18;;;;;;;;;;5038676;28;20040;-76
2022/12/25 12:37:37;;;;;;;42.85;11.40;;;;;;;;;;5029691;28;20025;-76
2022/12/25 12:40:04;;;;;;;39.88;11.10;;;;;;;;;;5037338;28;20419;-75
2022/12/25 12:42:39;;;;;;;38.65;11.18;;;;;;;;;;5038841;28;20100;-76
2022/12/25 12:45:34;;;;;;;38.28;11.20;;;;;;;;;;5035437;28;20025;-77
2022/12/25 12:48:00;;;;;;;;;;;;;;;;;;5015306;28;20048;-78
2022/12/25 12:50:34;;;;;;;39.17;12.90;;;;;;;;;;5042542;28;20273;-76
2022/12/25 12:53:14;;;;;;;44.05;11.15;;;;;;;;;;5017783;28;20135;-77
2022/12/25 12:55:40;;;;;;;39.65;10.95;;;;;;;;;;5032408;28;20124;-76
2022/12/25 12:58:06;;;;;;;32.85;10.90;;;;;;;;;;5037193;28;20052;-73
2022/12/25 13:00:40;;;;;;;41.45;10.73;;;;;;;;;;5040310;28;20017;-76
2022/12/25 13:03:21;;;;;;;42.40;12.90;;;;;;;;;;5037308;28;20394;-76
2022/12/25 13:05:50;;;;;;;41.95;11.60;;;;;;;;;;5031794;28;20029;-77
2022/12/25 13:08:26;;;;;;;38.53;12.90;;;;;;;;;;5039712;28;20033;-76
2022/12/25 13:11:02;;;;;;;39.13;12.63;;;;;;;;;;5038369;28;20029;-75
2022/12/25 13:13:36;;;;;;;42.47;13.40;;;;;;;;;;5040036;28;20024;-76
2022/12/25 13:16:03;;;;;;;35.65;13.80;;;;;;;;;;5035246;28;20033;-76
2022/12/25 13:18:29;;;;;;;40.80;13.02;;;;;;;;;;5016915;28;20021;-76
2022/12/25 13:21:01;;;;;;;39.10;12.88;;;;;;;;;;5033533;28;20060;-76
2022/12/25 13:23:28;;;;;;;39.28;12.48;;;;;;;;;;5034269;28;20028;-75
2022/12/25 13:25:55;;;;;;;43.63;13.82;;;;;;;;;;5033316;28;20506;-77
2022/12/25 13:28:25;;;;;;;42.90;12.60;;;;;;;;;;5034740;28;20095;-76
2022/12/25 13:30:51;;;;;;;41.40;13.18;;;;;;;;;;5035836;28;20026;-76
2022/12/25 13:33:19;;;;;;;39.70;13.85;;;;;;;;;;5036150;28;20070;-75
2022/12/25 13:35:45;;;;;;;51.97;15.43;;;;;;;;;;5035868;28;20036;-75
2022/12/25 13:38:16;;;;;;;47.53;15.50;;;;;;;;;;5035533;28;20087;-75
2022/12/25 13:42:04;;;;;;;56.50;16.70;;;;;;;;;;5034457;28;20511;-77
2022/12/25 13:43:35;;;;;;;44.60;16.30;;;;;;;;;;5032730;28;20037;-75
2022/12/25 13:46:01;;;;;;;54.13;20.88;;;;;;;;;;5033847;28;20029;-77
2022/12/25 13:48:27;;;;;;;65.88;24.20;;;;;;;;;;5034017;28;20083;-75
2022/12/25 13:50:57;;;;;;;58.42;19.00;;;;;;;;;;5035591;28;20379;-75
2022/12/25 13:53:23;;;;;;;49.80;18.13;;;;;;;;;;5047113;28;20036;-77
2022/12/25 13:55:51;;;;;;;51.45;18.17;;;;;;;;;;5038890;28;20055;-76
2022/12/25 13:58:28;;;;;;;52.20;17.23;;;;;;;;;;5033958;28;20021;-75
2022/12/25 14:00:58;;;;;;;44.95;17.27;;;;;;;;;;5032728;28;20029;-76
2022/12/25 14:03:28;;;;;;;50.17;16.40;;;;;;;;;;5032567;28;20167;-76
2022/12/25 14:05:58;;;;;;;41.00;15.55;;;;;;;;;;5033973;28;20093;-76
2022/12/25 14:08:25;;;;;;;38.83;15.20;;;;;;;;;;5034757;28;20040;-76
2022/12/25 14:10:52;;;;;;;51.45;15.27;;;;;;;;;;5033186;28;20033;-74
2022/12/25 14:13:20;;;;;;;42.72;15.10;;;;;;;;;;5034776;28;20053;-76
2022/12/25 14:15:47;;;;;;;47.78;15.98;;;;;;;;;;5032088;28;20370;-77
2022/12/25 14:18:17;;;;;;;44.22;14.98;;;;;;;;;;5036031;28;20029;-77
2022/12/25 14:21:00;;;;;;;43.95;15.40;;;;;;;;;;5034300;28;20018;-77
2022/12/25 14:23:27;;;;;;;44.10;14.68;;;;;;;;;;5035184;28;20166;-75
2022/12/25 14:25:53;;;;;;;47.75;15.85;;;;;;;;;;5035725;28;20085;-77
2022/12/25 14:28:23;;;;;;;40.67;14.75;;;;;;;;;;5016004;28;20069;-76
2022/12/25 14:30:49;;;;;;;43.35;16.35;;;;;;;;;;5034050;28;20032;-77
2022/12/25 14:33:17;;;;;;;49.25;16.90;;;;;;;;;;5036744;28;20467;-77
2022/12/25 14:35:43;;;;;;;54.03;17.83;;;;;;;;;;5035476;28;20025;-77
2022/12/25 14:38:15;;;;;;;44.80;16.67;;;;;;;;;;5036060;28;20108;-75
2022/12/25 14:40:44;;;;;;;49.65;15.70;;;;;;;;;;5035223;28;20033;-77
2022/12/25 14:43:21;;;;;;;52.55;15.50;;;;;;;;;;5034871;28;20022;-74
2022/12/25 14:45:53;;;;;;;44.22;15.20;;;;;;;;;;5055541;28;20075;-75
2022/12/25 14:48:23;;;;;;;46.05;15.75;;;;;;;;;;5056127;28;20096;-80
2022/12/25 14:50:58;;;;;;;47.03;16.02;;;;;;;;;;5053428;28;20020;-77
2022/12/25 14:53:27;;;;;;;43.53;15.82;;;;;;;;;;5036941;28;20087;-76
2022/12/25 14:55:54;;;;;;;45.38;16.27;;;;;;;;;;5033706;28;20112;-76
2022/12/25 14:58:21;;;;;;;56.00;16.45;;;;;;;;;;5033806;28;20029;-75
2022/12/25 15:00:53;;;;;;;54.53;16.23;;;;;;;;;;5046823;28;20096;-75
2022/12/25 15:03:35;;;;;;;48.55;15.75;;;;;;;;;;5047759;28;20041;-77
2022/12/25 15:06:05;;;;;;;50.67;16.92;;;;;;;;;;5033428;28;20039;-76
2022/12/25 15:08:31;;;;;;;49.10;16.20;;;;;;;;;;5039257;28;20025;-76
2022/12/25 15:10:58;;;;;;;52.25;15.52;;;;;;;;;;5038932;28;20034;-75
2022/12/25 15:13:24;;;;;;;51.78;19.40;;;;;;;;;;5032402;28;20039;-76
2022/12/25 15:16:11;;;;;;;57.28;17.40;;;;;;;;;;5016503;28;20064;-78
2022/12/25 15:18:41;;;;;;;49.63;16.52;;;;;;;;;;5032689;28;20034;-78
2022/12/25 15:21:15;;;;;;;48.15;16.17;;;;;;;;;;5037187;28;20044;-79
2022/12/25 15:23:41;;;;;;;47.67;15.67;;;;;;;;;;5026911;28;20037;-81
2022/12/25 15:26:09;;;;;;;45.25;16.83;;;;;;;;;;5032122;28;20430;-74
2022/12/25 15:28:35;;;;;;;34.95;14.68;;;;;;;;;;5034408;28;20026;-77
2022/12/25 15:31:00;;;;;;;44.40;16.02;;;;;;;;;;5032987;28;20060;-76
2022/12/25 15:33:26;;;;;;;40.75;14.85;;;;;;;;;;5034247;28;20405;-76
2022/12/25 15:35:53;;;;;;;42.30;16.10;;;;;;;;;;5035365;28;20053;-77
2022/12/25 15:38:19;;;;;;;43.45;15.20;;;;;;;;;;5044952;28;20005;-78
2022/12/25 15:40:46;;;;;;;45.88;15.43;;;;;;;;;;5026503;28;20033;-78
2022/12/25 15:43:14;;;;;;;44.55;14.95;;;;;;;;;;5018572;28;20056;-75
2022/12/25 15:45:40;;;;;;;51.42;15.70;;;;;;;;;;5033257;28;20166;-74
2022/12/25 15:48:06;;;;;;;45.53;14.95;;;;;;;;;;5036145;28;20053;-76
2022/12/25 15:50:35;;;;;;;46.55;15.82;;;;;;;;;;5033384;28;20061;-75
2022/12/25 15:53:01;;;;;;;44.17;15.48;;;;;;;;;;5016595;28;20018;-76
2022/12/25 15:55:27;;;;;;;32.75;13.60;;;;;;;;;;5033760;28;20048;-80
2022/12/25 15:57:53;;;;;;;47.22;15.20;;;;;;;;;;5033515;28;20482;-76
2022/12/25 16:00:21;;;;;;;42.90;14.30;;;;;;;;;;5034862;28;20055;-80
2022/12/25 16:02:47;;;;;;;36.28;13.95;;;;;;;;;;5037948;28;20086;-78
2022/12/25 16:05:13;;;;;;;44.45;14.70;;;;;;;;;;5038494;28;20030;-79
2022/12/25 16:07:40;;;;;;;43.38;13.27;;;;;;;;;;5033493;28;20474;-76
2022/12/25 16:10:06;;;;;;;37.78;13.90;;;;;;;;;;5032353;28;20064;-77